createdAt,value
2022-10-04T00:02:32.123Z,10.37
2022-10-04T00:05:04.145Z,12.23
2022-10-04T00:07:36.602Z,9.03
2022-10-04T00:10:17.569Z,8.63
2022-10-04T00:12:50.118Z,5.60
2022-10-04T00:15:23.460Z,5.90
2022-10-04T00:18:09.086Z,6.37
2022-10-04T00:20:53.314Z,8.97
2022-10-04T00:23:23.830Z,7.77
2022-10-04T00:25:58.766Z,7.80
2022-10-04T00:28:26.147Z,10.20
2022-10-04T00:31:12.070Z,7.13
2022-10-04T00:33:39.518Z,8.40
2022-10-04T00:36:25.328Z,7.97
2022-10-04T00:39:08.069Z,9.10
2022-10-04T00:41:39.274Z,8.10
2022-10-04T00:44:09.403Z,8.90
2022-10-04T00:46:37.571Z,7.93
2022-10-04T00:49:08.214Z,9.83
2022-10-04T00:51:39.539Z,7.30
2022-10-04T00:54:10.016Z,7.20
2022-10-04T00:56:43.846Z,8.53
2022-10-04T00:59:29.830Z,9.97
2022-10-04T01:02:17.615Z,8.53
2022-10-04T01:04:55.496Z,6.53
2022-10-04T01:07:34.379Z,7.17
2022-10-04T01:10:03.909Z,5.90
2022-10-04T01:12:34.182Z,5.93
2022-10-04T01:15:10.225Z,6.23
2022-10-04T01:17:37.765Z,7.13
2022-10-04T01:20:05.589Z,5.60
2022-10-04T01:22:38.309Z,6.37
2022-10-04T01:25:05.676Z,6.13
2022-10-04T01:27:37.809Z,5.90
2022-10-04T01:30:07.858Z,6.63
2022-10-04T01:32:35.325Z,5.43
2022-10-04T01:35:02.768Z,5.80
2022-10-04T01:37:30.021Z,5.40
2022-10-04T01:39:57.394Z,5.97
2022-10-04T01:42:27.822Z,4.40
2022-10-04T01:45:07.569Z,4.67
2022-10-04T01:47:49.236Z,5.80
2022-10-04T01:50:21.968Z,7.33
2022-10-04T01:52:54.576Z,4.73
2022-10-04T01:55:26.280Z,6.60
2022-10-04T01:57:55.751Z,6.40
2022-10-04T02:00:24.305Z,4.03
2022-10-04T02:02:54.659Z,5.90
2022-10-04T02:05:34.256Z,6.47
2022-10-04T02:08:06.104Z,4.80
2022-10-04T02:10:39.726Z,4.83
2022-10-04T02:13:11.604Z,6.40
2022-10-04T02:15:42.451Z,6.00
2022-10-04T02:18:13.725Z,4.23
2022-10-04T02:20:42.909Z,4.03
2022-10-04T02:23:10.904Z,3.40
2022-10-04T02:25:38.828Z,4.30
2022-10-04T02:28:11.525Z,5.67
2022-10-04T02:30:39.594Z,4.47
2022-10-04T02:33:06.985Z,5.37
2022-10-04T02:35:36.060Z,5.07
2022-10-04T02:38:20.157Z,9.27
2022-10-04T02:40:54.512Z,8.10
2022-10-04T02:43:25.932Z,6.63
2022-10-04T02:45:58.276Z,6.57
2022-10-04T02:49:01.163Z,7.17
2022-10-04T02:51:32.334Z,7.00
2022-10-04T02:54:05.722Z,7.67
2022-10-04T02:56:33.381Z,7.70
2022-10-04T02:59:02.165Z,7.83
2022-10-04T03:01:38.488Z,7.30
2022-10-04T03:04:05.861Z,6.33
2022-10-04T03:06:33.715Z,5.13
2022-10-04T03:09:03.299Z,7.47
2022-10-04T03:11:32.418Z,12.80
2022-10-04T03:14:01.102Z,8.97
2022-10-04T03:16:28.625Z,8.50
2022-10-04T03:18:58.343Z,5.97
2022-10-04T03:21:25.994Z,4.33
2022-10-04T03:23:53.897Z,8.40
2022-10-04T03:26:33.489Z,6.33
2022-10-04T03:29:01.051Z,6.00
2022-10-04T03:31:29.328Z,6.57
2022-10-04T03:33:58.062Z,7.17
2022-10-04T03:36:26.817Z,7.87
2022-10-04T03:38:56.103Z,4.90
2022-10-04T03:41:25.857Z,4.43
2022-10-04T03:43:54.967Z,6.37
2022-10-04T03:46:23.226Z,6.17
2022-10-04T03:48:52.310Z,5.13
2022-10-04T03:51:24.073Z,5.17
2022-10-04T03:53:56.891Z,6.93
2022-10-04T03:56:27.562Z,8.27
2022-10-04T03:58:55.805Z,5.93
2022-10-04T04:01:26.259Z,5.47
2022-10-04T04:04:03.215Z,7.10
2022-10-04T04:06:38.259Z,5.50
2022-10-04T04:09:06.742Z,5.27
2022-10-04T04:11:34.317Z,6.87
2022-10-04T04:14:11.033Z,5.30
2022-10-04T04:16:38.761Z,6.00
2022-10-04T04:19:11.124Z,4.70
2022-10-04T04:21:38.384Z,6.17
2022-10-04T04:24:12.872Z,7.23
2022-10-04T04:26:44.778Z,5.40
2022-10-04T04:29:12.098Z,6.60
2022-10-04T04:32:03.703Z,6.30
2022-10-04T04:34:33.046Z,5.10
2022-10-04T04:37:02.658Z,5.47
2022-10-04T04:39:41.313Z,5.20
2022-10-04T04:42:11.727Z,8.43
2022-10-04T04:44:47.093Z,9.30
2022-10-04T04:47:40.368Z,7.73
2022-10-04T04:50:09.411Z,7.20
2022-10-04T04:52:37.142Z,6.97
2022-10-04T04:55:05.172Z,7.83
2022-10-04T04:57:33.445Z,6.87
2022-10-04T05:00:01.979Z,7.93
2022-10-04T05:02:40.488Z,9.47
2022-10-04T05:05:18.246Z,5.30
2022-10-04T05:07:45.765Z,5.60
2022-10-04T05:10:32.730Z,8.30
2022-10-04T05:13:04.425Z,12.33
2022-10-04T05:15:38.927Z,5.80
2022-10-04T05:18:25.204Z,4.87
2022-10-04T05:20:53.955Z,6.70
2022-10-04T05:23:21.996Z,5.83
2022-10-04T05:25:51.056Z,10.50
2022-10-04T05:28:18.961Z,7.63
2022-10-04T05:30:50.071Z,7.10
2022-10-04T05:33:31.843Z,5.30
2022-10-04T05:36:13.869Z,6.63
2022-10-04T05:38:41.074Z,9.03
2022-10-04T05:41:08.398Z,7.87
2022-10-04T05:43:35.636Z,30.17
2022-10-04T05:46:09.211Z,67.30
2022-10-04T05:48:36.916Z,27.67
2022-10-04T05:51:13.274Z,17.33
2022-10-04T05:53:42.978Z,14.13
2022-10-04T05:56:29.039Z,17.00
2022-10-04T05:59:15.012Z,13.50
2022-10-04T06:01:42.830Z,10.90
2022-10-04T06:04:29.139Z,13.43
2022-10-04T06:07:10.475Z,9.43
2022-10-04T06:09:37.805Z,10.57
2022-10-04T06:12:09.959Z,8.83
2022-10-04T06:14:37.369Z,8.77
2022-10-04T06:17:04.744Z,9.77
2022-10-04T06:19:49.074Z,6.77
2022-10-04T06:22:20.221Z,6.00
2022-10-04T06:25:09.361Z,6.83
2022-10-04T06:27:41.801Z,9.57
2022-10-04T06:30:17.271Z,5.97
2022-10-04T06:32:44.513Z,7.33
2022-10-04T06:35:20.987Z,9.27
2022-10-04T06:38:01.749Z,8.57
2022-10-04T06:40:47.790Z,6.13
2022-10-04T06:43:24.465Z,4.97
2022-10-04T06:45:55.070Z,6.80
2022-10-04T06:48:51.672Z,4.90
2022-10-04T06:51:22.143Z,6.40
2022-10-04T06:53:49.435Z,5.90
2022-10-04T06:56:33.096Z,4.90
2022-10-04T06:59:03.325Z,6.20
2022-10-04T07:01:35.416Z,6.07
2022-10-04T07:04:25.027Z,9.73
2022-10-04T07:07:26.788Z,8.50
2022-10-04T07:10:14.296Z,7.50
2022-10-04T07:12:44.665Z,9.50
2022-10-04T07:15:21.168Z,7.20
2022-10-04T07:17:49.931Z,6.17
2022-10-04T07:20:27.383Z,6.67
2022-10-04T07:23:03.699Z,5.40
2022-10-04T07:25:32.940Z,5.40
2022-10-04T07:28:27.484Z,5.40
2022-10-04T07:31:04.267Z,6.20
2022-10-04T07:33:33.491Z,4.40
2022-10-04T07:36:09.007Z,6.73
2022-10-04T07:38:38.683Z,5.73
2022-10-04T07:41:12.112Z,5.27
2022-10-04T07:43:46.925Z,4.87
2022-10-04T07:46:33.254Z,6.17
2022-10-04T07:49:00.804Z,5.70
2022-10-04T07:51:37.906Z,7.37
2022-10-04T07:54:10.749Z,6.13
2022-10-04T07:56:37.936Z,5.53
2022-10-04T07:59:24.106Z,5.13
2022-10-04T08:01:54.582Z,8.60
2022-10-04T08:04:29.669Z,5.63
2022-10-04T08:07:00.101Z,6.63
2022-10-04T08:09:30.496Z,5.50
2022-10-04T08:12:17.082Z,5.60
2022-10-04T08:14:51.891Z,6.40
2022-10-04T08:17:38.583Z,8.57
2022-10-04T08:20:23.351Z,7.90
2022-10-04T08:23:16.888Z,7.50
2022-10-04T08:25:44.243Z,6.17
2022-10-04T08:28:54.169Z,7.97
2022-10-04T08:31:21.746Z,5.20
2022-10-04T08:33:49.270Z,5.63
2022-10-04T08:36:19.662Z,4.43
2022-10-04T08:38:53.591Z,4.50
2022-10-04T08:41:41.243Z,7.50
2022-10-04T08:44:08.777Z,5.13
2022-10-04T08:46:36.242Z,6.43
2022-10-04T08:49:04.846Z,7.10
2022-10-04T08:51:41.337Z,5.97
2022-10-04T08:54:27.937Z,7.43
2022-10-04T08:57:16.452Z,5.17
2022-10-04T09:00:22.556Z,9.48
2022-10-04T09:03:02.111Z,5.45
2022-10-04T09:05:39.060Z,6.00
2022-10-04T09:08:09.540Z,4.10
2022-10-04T09:10:50.824Z,5.97
2022-10-04T09:13:25.205Z,6.53
2022-10-04T09:15:53.817Z,5.00
2022-10-04T09:18:30.492Z,3.60
2022-10-04T09:21:01.303Z,4.60
2022-10-04T09:23:31.862Z,5.13
2022-10-04T09:25:59.129Z,9.70
2022-10-04T09:28:29.608Z,8.87
2022-10-04T09:31:30.201Z,3.50
2022-10-04T09:34:07.066Z,4.00
2022-10-04T09:36:41.553Z,5.30
2022-10-04T09:39:30.819Z,8.47
2022-10-04T09:42:18.263Z,10.15
2022-10-04T09:45:20.421Z,4.00
2022-10-04T09:48:07.836Z,4.70
2022-10-04T09:50:52.053Z,5.15
2022-10-04T09:53:28.465Z,4.57
2022-10-04T09:56:01.894Z,4.10
2022-10-04T09:58:49.229Z,6.70
2022-10-04T10:01:29.742Z,3.38
2022-10-04T10:04:06.963Z,4.07
2022-10-04T10:06:46.766Z,6.72
2022-10-04T10:09:52.295Z,21.73
2022-10-04T10:12:38.168Z,9.40
2022-10-04T10:15:28.955Z,7.88
2022-10-04T10:18:05.409Z,10.30
2022-10-04T10:21:01.358Z,7.40
2022-10-04T10:23:45.347Z,18.73
2022-10-04T10:26:36.420Z,3.63
2022-10-04T10:29:16.708Z,5.75
2022-10-04T10:31:47.667Z,8.50
2022-10-04T10:34:34.234Z,6.20
2022-10-04T10:37:18.882Z,8.35
2022-10-04T10:39:56.699Z,4.78
2022-10-04T10:42:39.252Z,4.45
2022-10-04T10:45:24.567Z,3.58
2022-10-04T10:48:01.927Z,5.10
2022-10-04T10:51:00.475Z,2.38
2022-10-04T10:53:34.254Z,3.10
2022-10-04T10:56:05.043Z,2.78
2022-10-04T10:58:44.300Z,2.50
2022-10-04T11:01:21.177Z,4.55
2022-10-04T11:04:07.219Z,3.55
2022-10-04T11:06:53.976Z,4.75
2022-10-04T11:09:27.321Z,3.17
2022-10-04T11:12:13.244Z,1.95
2022-10-04T11:14:56.828Z,3.70
2022-10-04T11:17:25.658Z,2.25
2022-10-04T11:19:55.990Z,2.10
2022-10-04T11:22:23.232Z,2.10
2022-10-04T11:24:53.655Z,2.42
2022-10-04T11:27:22.379Z,1.67
2022-10-04T11:30:03.922Z,4.38
2022-10-04T11:32:37.419Z,2.50
2022-10-04T11:35:18.308Z,3.22
2022-10-04T11:37:47.518Z,2.67
2022-10-04T11:40:18.055Z,4.50
2022-10-04T11:42:54.497Z,2.22
2022-10-04T11:45:34.615Z,3.42
2022-10-04T11:48:20.877Z,1.95
2022-10-04T11:51:07.982Z,2.17
2022-10-04T11:53:39.452Z,2.08
2022-10-04T11:56:30.694Z,2.20
2022-10-04T11:59:03.900Z,1.90
2022-10-04T12:01:46.871Z,1.50
2022-10-04T12:04:18.174Z,3.92
2022-10-04T12:06:51.849Z,1.52
2022-10-04T12:09:19.141Z,1.85
2022-10-04T12:12:24.176Z,1.92
2022-10-04T12:14:54.212Z,1.30
2022-10-04T12:17:40.494Z,1.55
2022-10-04T12:20:12.024Z,2.58
2022-10-04T12:22:47.645Z,3.70
2022-10-04T12:25:27.143Z,2.97
2022-10-04T12:27:57.691Z,4.05
2022-10-04T12:30:24.996Z,1.25
2022-10-04T12:33:03.541Z,1.98
2022-10-04T12:35:49.269Z,2.58
2022-10-04T12:38:26.962Z,1.90
2022-10-04T12:41:13.017Z,2.22
2022-10-04T12:43:40.391Z,2.45
2022-10-04T12:46:07.701Z,3.03
2022-10-04T12:48:50.456Z,2.42
2022-10-04T12:51:39.771Z,2.45
2022-10-04T12:54:22.550Z,2.60
2022-10-04T12:57:02.270Z,2.80
2022-10-04T12:59:36.765Z,2.45
2022-10-04T13:02:07.120Z,3.55
2022-10-04T13:04:40.747Z,1.95
2022-10-04T13:07:17.956Z,1.85
2022-10-04T13:10:23.548Z,4.03
2022-10-04T13:13:12.536Z,3.13
2022-10-04T13:18:30.386Z,2.67
2022-10-04T13:21:09.021Z,2.30
2022-10-04T13:23:36.612Z,4.40
2022-10-04T13:26:04.449Z,6.47
2022-10-04T13:28:39.192Z,3.25
2022-10-04T13:31:09.772Z,1.33
2022-10-04T13:33:43.515Z,3.58
2022-10-04T13:36:14.430Z,1.73
2022-10-04T13:38:49.948Z,1.75
2022-10-04T13:41:33.436Z,1.83
2022-10-04T13:44:10.938Z,1.33
2022-10-04T13:46:57.041Z,1.30
2022-10-04T13:49:30.187Z,1.13
2022-10-04T13:52:30.448Z,6.32
2022-10-04T13:55:25.465Z,2.10
2022-10-04T13:58:07.433Z,0.90
2022-10-04T14:00:53.987Z,0.95
2022-10-04T14:03:32.131Z,4.32
2022-10-04T14:06:06.151Z,1.83
2022-10-04T14:08:56.961Z,1.23
2022-10-04T14:11:24.479Z,0.85
2022-10-04T14:14:10.593Z,2.00
2022-10-04T14:17:01.329Z,1.17
2022-10-04T14:19:43.620Z,0.90
2022-10-04T14:22:11.460Z,1.40
2022-10-04T14:24:57.921Z,1.38
2022-10-04T14:27:28.519Z,1.25
2022-10-04T14:29:56.141Z,1.02
2022-10-04T14:32:23.477Z,3.25
2022-10-04T14:34:55.309Z,1.45
2022-10-04T14:37:41.597Z,2.00
2022-10-04T14:40:09.183Z,1.40
2022-10-04T14:42:44.345Z,2.22
2022-10-04T14:45:16.672Z,1.33
2022-10-04T14:48:02.688Z,0.98
2022-10-04T14:50:41.393Z,0.90
2022-10-04T14:53:08.612Z,2.90
2022-10-04T14:55:38.945Z,3.17
2022-10-04T14:58:31.728Z,1.02
2022-10-04T15:01:17.826Z,1.38
2022-10-04T15:03:50.138Z,4.75
2022-10-04T15:06:28.300Z,4.25
2022-10-04T15:09:07.920Z,3.10
2022-10-04T15:11:40.335Z,1.23
2022-10-04T15:14:40.540Z,0.90
2022-10-04T15:17:31.145Z,1.52
2022-10-04T15:20:08.711Z,1.42
2022-10-04T15:22:40.504Z,1.50
2022-10-04T15:25:26.773Z,1.42
2022-10-04T15:27:57.454Z,2.78
2022-10-04T15:30:24.671Z,2.28
2022-10-04T15:32:51.882Z,1.35
2022-10-04T15:35:22.428Z,2.15
2022-10-04T15:38:29.187Z,3.45
2022-10-04T15:41:03.913Z,1.80
2022-10-04T15:43:32.972Z,2.05
2022-10-04T15:46:03.471Z,2.45
2022-10-04T15:48:50.434Z,1.55
2022-10-04T15:51:24.128Z,1.77
2022-10-04T15:54:11.172Z,1.88
2022-10-04T15:56:41.726Z,4.22
2022-10-04T15:59:27.783Z,2.33
2022-10-04T16:02:13.868Z,1.60
2022-10-04T16:04:48.037Z,5.35
2022-10-04T16:07:24.372Z,2.00
2022-10-04T16:10:13.587Z,3.58
2022-10-04T16:12:44.480Z,2.63
2022-10-04T16:15:19.881Z,2.75
2022-10-04T16:17:50.244Z,1.98
2022-10-04T16:20:27.652Z,2.00
2022-10-04T16:23:14.527Z,6.93
2022-10-04T16:25:42.956Z,5.45
2022-10-04T16:28:23.363Z,4.45
2022-10-04T16:31:29.513Z,4.45
2022-10-04T16:33:57.031Z,3.78
2022-10-04T16:36:26.959Z,4.90
2022-10-04T16:39:15.269Z,5.35
2022-10-04T16:42:03.483Z,9.68
2022-10-04T16:44:33.966Z,4.95
2022-10-04T16:47:03.608Z,3.67
2022-10-04T16:49:41.540Z,5.60
2022-10-04T16:52:18.026Z,5.45
2022-10-04T16:54:58.156Z,8.07
2022-10-04T16:57:27.871Z,9.60
2022-10-04T16:59:55.202Z,6.10
2022-10-04T17:02:23.088Z,6.88
2022-10-04T17:04:56.222Z,5.03
2022-10-04T17:07:49.949Z,5.03
2022-10-04T17:10:21.227Z,10.25
2022-10-04T17:12:48.601Z,7.22
2022-10-04T17:15:15.807Z,5.50
2022-10-04T17:17:57.994Z,6.45
2022-10-04T17:20:25.469Z,6.93
2022-10-04T17:23:18.778Z,8.18
2022-10-04T17:25:57.207Z,4.65
2022-10-04T17:28:43.281Z,4.63
2022-10-04T17:31:14.605Z,6.28
2022-10-04T17:33:43.696Z,7.05
2022-10-04T17:36:14.766Z,6.10
2022-10-04T17:39:00.869Z,6.68
2022-10-04T17:41:33.210Z,9.05
2022-10-04T17:44:09.558Z,7.32
2022-10-04T17:46:38.231Z,16.58
2022-10-04T17:49:30.406Z,8.65
2022-10-04T17:52:21.198Z,8.32
2022-10-04T17:55:13.618Z,7.10
2022-10-04T17:57:56.476Z,9.95
2022-10-04T18:00:25.424Z,12.07
2022-10-04T18:03:02.348Z,13.38
2022-10-04T18:05:30.867Z,18.58
2022-10-04T18:08:04.338Z,11.23
2022-10-04T18:10:31.589Z,9.43
2022-10-04T18:13:02.085Z,7.70
2022-10-04T18:15:52.641Z,9.52
2022-10-04T18:18:28.724Z,9.52
2022-10-04T18:21:07.775Z,15.60
2022-10-04T18:23:36.997Z,13.52
2022-10-04T18:26:12.131Z,13.05
2022-10-04T18:28:39.822Z,11.80
2022-10-04T18:31:29.447Z,11.75
2022-10-04T18:34:17.279Z,12.50
2022-10-04T18:36:56.679Z,11.82
2022-10-04T18:39:24.717Z,6.03
2022-10-04T18:41:57.710Z,5.63
2022-10-04T18:44:31.832Z,6.60
2022-10-04T18:47:02.959Z,5.70
2022-10-04T18:49:33.398Z,7.03
2022-10-04T18:52:03.695Z,6.43
2022-10-04T18:54:49.127Z,6.07
2022-10-04T18:57:55.204Z,7.00
2022-10-04T19:00:42.019Z,7.40
2022-10-04T19:03:26.460Z,9.53
2022-10-04T19:05:56.891Z,17.03
2022-10-04T19:08:42.953Z,14.30
2022-10-04T19:11:29.592Z,13.87
2022-10-04T19:14:02.652Z,12.50
2022-10-04T19:16:41.676Z,10.30
2022-10-04T19:19:29.454Z,11.73
2022-10-04T19:22:15.381Z,8.97
2022-10-04T19:25:12.158Z,12.67
2022-10-04T19:27:45.442Z,10.33
2022-10-04T19:30:19.869Z,9.63
2022-10-04T19:33:14.149Z,10.17
2022-10-04T19:35:48.644Z,14.87
2022-10-04T19:38:16.083Z,11.00
2022-10-04T19:40:44.445Z,10.07
2022-10-04T19:43:16.303Z,10.97
2022-10-04T19:45:43.763Z,12.97
2022-10-04T19:48:23.367Z,11.43
2022-10-04T19:50:55.208Z,9.73
2022-10-04T19:53:28.348Z,11.93
2022-10-04T19:55:57.001Z,11.10
2022-10-04T19:58:46.974Z,11.60
2022-10-04T20:01:16.183Z,11.83
2022-10-04T20:03:43.788Z,11.17
2022-10-04T20:06:11.957Z,12.57
2022-10-04T20:08:45.532Z,11.27
2022-10-04T20:11:18.488Z,12.33
2022-10-04T20:13:46.243Z,9.10
2022-10-04T20:16:14.715Z,10.00
2022-10-04T20:18:42.054Z,7.43
2022-10-04T20:21:10.818Z,8.43
2022-10-04T20:23:41.270Z,7.57
2022-10-04T20:26:08.477Z,7.40
2022-10-04T20:28:40.297Z,7.30
2022-10-04T20:31:09.412Z,7.93
2022-10-04T20:33:50.379Z,7.83
2022-10-04T20:36:20.910Z,8.37
2022-10-04T20:38:48.262Z,8.10
2022-10-04T20:41:54.192Z,9.77
2022-10-04T20:44:41.620Z,7.37
2022-10-04T20:47:32.168Z,7.17
2022-10-04T20:50:03.105Z,8.23
2022-10-04T20:52:31.634Z,8.33
2022-10-04T20:55:01.554Z,8.17
2022-10-04T20:57:30.932Z,6.10
2022-10-04T20:59:59.425Z,8.53
2022-10-04T21:02:28.789Z,6.83
2022-10-04T21:05:12.076Z,6.83
2022-10-04T21:07:39.550Z,6.83
2022-10-04T21:10:08.584Z,5.97
2022-10-04T21:12:35.997Z,8.57
2022-10-04T21:15:12.664Z,10.87
2022-10-04T21:17:39.914Z,10.37
2022-10-04T21:20:15.132Z,6.73
2022-10-04T21:22:42.945Z,9.57
2022-10-04T21:25:31.225Z,8.77
2022-10-04T21:28:17.415Z,7.70
2022-10-04T21:30:44.782Z,7.97
2022-10-04T21:33:12.795Z,12.20
2022-10-04T21:35:40.013Z,13.20
2022-10-04T21:38:07.267Z,13.03
2022-10-04T21:40:34.462Z,13.10
2022-10-04T21:43:01.712Z,13.83
2022-10-04T21:45:29.106Z,13.37
2022-10-04T21:47:56.359Z,12.03
2022-10-04T21:50:23.836Z,9.67
2022-10-04T21:52:51.065Z,10.50
2022-10-04T21:55:18.260Z,8.83
2022-10-04T21:57:45.505Z,9.40
2022-10-04T22:00:12.890Z,7.07
2022-10-04T22:02:40.245Z,8.03
2022-10-04T22:05:07.740Z,6.80
2022-10-04T22:07:34.986Z,7.43
2022-10-04T22:10:02.405Z,7.27
2022-10-04T22:12:29.698Z,6.47
2022-10-04T22:14:57.153Z,6.97
2022-10-04T22:17:24.522Z,6.43
2022-10-04T22:19:53.090Z,5.93
2022-10-04T22:22:20.417Z,6.43
2022-10-04T22:24:47.663Z,7.57
2022-10-04T22:27:16.355Z,5.77
2022-10-04T22:29:43.729Z,9.13
2022-10-04T22:32:18.718Z,7.80
2022-10-04T22:34:46.055Z,6.53
2022-10-04T22:37:13.461Z,6.50
2022-10-04T22:39:40.826Z,7.07
2022-10-04T22:42:11.813Z,7.83
2022-10-04T22:44:39.259Z,6.47
2022-10-04T22:47:11.062Z,6.13
2022-10-04T22:49:40.191Z,6.37
2022-10-04T22:52:12.209Z,6.17
2022-10-04T22:54:42.116Z,6.73
2022-10-04T22:57:11.449Z,7.17
2022-10-04T22:59:40.196Z,6.97
2022-10-04T23:02:11.691Z,7.87
2022-10-04T23:04:46.155Z,6.23
2022-10-04T23:07:13.425Z,6.13
2022-10-04T23:09:41.475Z,5.87
2022-10-04T23:12:09.874Z,5.53
2022-10-04T23:14:37.911Z,7.20
2022-10-04T23:17:24.093Z,6.30
2022-10-04T23:19:58.524Z,7.17
2022-10-04T23:22:30.815Z,7.93
2022-10-04T23:24:58.343Z,6.63
2022-10-04T23:27:25.627Z,6.00
2022-10-04T23:30:02.683Z,7.30
2022-10-04T23:32:31.911Z,6.53
2022-10-04T23:34:59.379Z,6.23
2022-10-04T23:37:28.555Z,4.23
2022-10-04T23:39:55.816Z,7.07
2022-10-04T23:42:30.311Z,4.50
2022-10-04T23:44:58.192Z,3.80
2022-10-04T23:47:28.515Z,3.93
2022-10-04T23:49:55.795Z,3.50
2022-10-04T23:52:28.266Z,3.70
2022-10-04T23:54:55.898Z,4.63
2022-10-04T23:57:26.579Z,6.20
2022-10-04T23:59:53.891Z,6.27
